Portada
METAR-TAF:

METAR-TAF

Aeropuertos :

Lyon, Francia

latitud: 45-43N, longitud: 004-57E, altitud: 200 m

Observación

El informe se hizo hace 44 minutos, a las 01:30 UTC
Viento 2 kt con dirección variable
Temperatura 4°C
Humedad 75%
Presión 1028 hPa
Visibilidad 10 km o más
sin nubes por debajo de 1500 m y sin presencia de cumulonimbus.

METAR: LFLY 020130Z AUTO VRB02KT CAVOK 04/00 Q1028 NOSIG

Hora: 03:14 (02:14 UTC)

Pronóstico

El informe se hizo hace 3 horas y 14 minutos, a las 23:00 UTC
Pronóstico válido del 02 a las 00 UTC al 02 a las 24 UTC
Viento 5 kt del sureste
Visibilidad 10 km o más
sin nubes por debajo de 1500 m y sin presencia de cumulonimbus.

TAF: LFLY 012300Z 0200/0224 14005KT CAVOK

Observaciones y pronósticos meteorológicos de más de 4000 aeropuertos (mensajes METAR y TAF).

Los puntos amarillos y rojos representan las estaciones disponibles.

Ponga el ratón en el punto deseado para ver el nombre de la estación.

Haga clic para ver las observaciones y los pronósticos meteorológicos.

Para cambiar el mapa : haga clic en los botones verdes con una cruz de color negro para hacer un zoom, en el botón verde con un guión para alejar o en las flechas verdes para mapas adyacentes.


METAR-TAF: